createdAt,value
2019-01-30T00:01:55.803Z,23.97
2019-01-30T00:04:21.915Z,23.77
2019-01-30T00:06:48.171Z,22.33
2019-01-30T00:09:14.305Z,24.47
2019-01-30T00:11:40.438Z,25.53
2019-01-30T00:14:06.659Z,20.77
2019-01-30T00:16:32.886Z,21.70
2019-01-30T00:18:59.135Z,22.73
2019-01-30T00:21:25.378Z,21.23
2019-01-30T00:23:51.639Z,21.77
2019-01-30T00:26:17.780Z,21.90
2019-01-30T00:28:43.884Z,20.27
2019-01-30T00:31:10.122Z,26.20
2019-01-30T00:33:36.266Z,23.37
2019-01-30T00:36:02.416Z,28.33
2019-01-30T00:38:28.556Z,21.47
2019-01-30T00:40:54.831Z,24.70
2019-01-30T00:43:21.057Z,20.03
2019-01-30T00:45:47.300Z,21.93
2019-01-30T00:48:13.423Z,23.47
2019-01-30T00:50:39.675Z,24.63
2019-01-30T00:53:05.819Z,22.67
2019-01-30T00:55:31.921Z,21.87
2019-01-30T00:57:58.069Z,23.67
2019-01-30T01:00:26.220Z,23.13
2019-01-30T01:02:52.489Z,20.73
2019-01-30T01:05:18.584Z,21.33
2019-01-30T01:07:45.026Z,24.13
2019-01-30T01:10:16.452Z,19.37
2019-01-30T01:12:42.622Z,21.17
2019-01-30T01:15:11.158Z,27.90
2019-01-30T01:17:37.335Z,26.27
2019-01-30T01:20:07.181Z,21.33
2019-01-30T01:22:33.315Z,24.63
2019-01-30T01:24:59.552Z,23.07
2019-01-30T01:27:25.681Z,23.57
2019-01-30T01:29:51.840Z,20.50
2019-01-30T01:32:17.949Z,20.83
2019-01-30T01:34:44.094Z,22.23
2019-01-30T01:37:10.234Z,24.20
2019-01-30T01:39:36.404Z,23.07
2019-01-30T01:42:02.647Z,20.47
2019-01-30T01:44:28.796Z,21.73
2019-01-30T01:46:54.989Z,21.10
2019-01-30T01:49:21.101Z,22.73
2019-01-30T01:51:47.253Z,20.00
2019-01-30T01:54:13.383Z,25.27
2019-01-30T01:56:42.491Z,27.87
2019-01-30T01:59:08.679Z,19.00
2019-01-30T02:01:34.869Z,23.20
2019-01-30T02:04:01.085Z,21.77
2019-01-30T02:06:27.228Z,27.80
2019-01-30T02:08:53.361Z,22.33
2019-01-30T02:11:19.482Z,27.00
2019-01-30T02:13:45.572Z,23.53
2019-01-30T02:16:11.775Z,23.00
2019-01-30T02:18:38.012Z,23.83
2019-01-30T02:21:04.160Z,20.97
2019-01-30T02:23:30.358Z,24.30
2019-01-30T02:25:56.478Z,23.53
2019-01-30T02:28:22.591Z,21.53
2019-01-30T02:30:48.755Z,20.57
2019-01-30T02:33:14.971Z,22.63
2019-01-30T02:35:41.185Z,22.83
2019-01-30T02:38:07.372Z,25.43
2019-01-30T02:40:33.529Z,27.53
2019-01-30T02:42:59.691Z,25.03
2019-01-30T02:45:26.224Z,24.37
2019-01-30T02:47:52.469Z,25.07
2019-01-30T02:50:19.212Z,21.97
2019-01-30T02:52:45.679Z,26.10
2019-01-30T02:55:13.703Z,26.23
2019-01-30T02:57:39.841Z,25.23
2019-01-30T03:00:18.829Z,22.67
2019-01-30T03:02:45.002Z,20.33
2019-01-30T03:05:12.418Z,24.00
2019-01-30T03:07:38.605Z,25.97
2019-01-30T03:10:08.311Z,23.43
2019-01-30T03:12:34.427Z,25.37
2019-01-30T03:15:01.047Z,24.23
2019-01-30T03:17:27.265Z,26.70
2019-01-30T03:19:53.365Z,22.87
2019-01-30T03:22:19.553Z,27.30
2019-01-30T03:24:45.684Z,27.30
2019-01-30T03:27:11.861Z,31.63
2019-01-30T03:29:37.963Z,26.63
2019-01-30T03:32:04.298Z,32.20
2019-01-30T03:34:30.453Z,28.60
2019-01-30T03:36:56.634Z,26.17
2019-01-30T03:39:22.740Z,33.70
2019-01-30T03:41:48.886Z,28.30
2019-01-30T03:44:15.159Z,30.13
2019-01-30T03:46:41.328Z,28.27
2019-01-30T03:49:07.540Z,32.83
2019-01-30T03:51:33.768Z,33.50
2019-01-30T03:53:59.930Z,29.43
2019-01-30T03:56:26.029Z,32.77
2019-01-30T03:58:52.180Z,33.20
2019-01-30T04:01:26.569Z,33.50
2019-01-30T04:03:46.452Z,37.00
2019-01-30T04:06:12.620Z,31.63
2019-01-30T04:08:38.750Z,30.93
2019-01-30T04:11:04.896Z,33.47
2019-01-30T04:13:31.005Z,28.03
2019-01-30T04:15:57.190Z,31.83
2019-01-30T04:18:23.309Z,35.10
2019-01-30T04:20:49.451Z,35.80
2019-01-30T04:23:17.378Z,28.97
2019-01-30T04:25:43.521Z,32.60
2019-01-30T04:28:09.634Z,33.27
2019-01-30T04:30:35.798Z,31.60
2019-01-30T04:33:01.893Z,30.03
2019-01-30T04:35:28.043Z,30.87
2019-01-30T04:37:54.174Z,30.53
2019-01-30T04:40:22.533Z,30.90
2019-01-30T04:42:48.714Z,30.57
2019-01-30T04:45:21.461Z,30.70
2019-01-30T04:47:47.588Z,28.47
2019-01-30T04:50:13.853Z,29.73
2019-01-30T04:52:39.982Z,31.30
2019-01-30T04:55:07.599Z,28.67
2019-01-30T04:57:33.748Z,31.17
2019-01-30T04:59:59.950Z,31.77
2019-01-30T05:02:26.106Z,28.43
2019-01-30T05:04:52.239Z,29.93
2019-01-30T05:07:18.353Z,28.03
2019-01-30T05:09:44.463Z,28.73
2019-01-30T05:12:10.595Z,30.23
2019-01-30T05:14:36.600Z,29.63
2019-01-30T05:17:02.850Z,32.17
2019-01-30T05:19:29.001Z,27.97
2019-01-30T05:21:55.162Z,27.20
2019-01-30T05:24:21.317Z,31.60
2019-01-30T05:26:47.440Z,28.03
2019-01-30T05:29:13.590Z,27.63
2019-01-30T05:31:39.823Z,28.77
2019-01-30T05:34:05.979Z,28.30
2019-01-30T05:36:32.082Z,26.80
2019-01-30T05:38:58.248Z,30.23
2019-01-30T05:41:24.416Z,28.70
2019-01-30T05:43:50.484Z,32.87
2019-01-30T05:46:16.757Z,31.23
2019-01-30T05:48:42.940Z,28.30
2019-01-30T05:51:09.074Z,30.57
2019-01-30T05:53:35.231Z,29.40
2019-01-30T05:56:01.382Z,28.60
2019-01-30T05:58:27.614Z,32.30
2019-01-30T06:00:53.867Z,31.30
2019-01-30T06:03:20.005Z,34.87
2019-01-30T06:05:46.134Z,28.77
2019-01-30T06:08:12.292Z,27.77
2019-01-30T06:10:38.430Z,31.93
2019-01-30T06:13:05.066Z,28.57
2019-01-30T06:15:31.248Z,40.63
2019-01-30T06:17:57.396Z,29.20
2019-01-30T06:20:25.552Z,32.03
2019-01-30T06:22:52.265Z,29.63
2019-01-30T06:25:18.436Z,29.03
2019-01-30T06:27:46.354Z,32.00
2019-01-30T06:30:15.179Z,29.83
2019-01-30T06:32:41.413Z,30.10
2019-01-30T06:35:07.739Z,35.77
2019-01-30T06:37:34.032Z,30.40
2019-01-30T06:40:00.211Z,30.10
2019-01-30T06:42:26.358Z,30.80
2019-01-30T06:44:52.542Z,28.97
2019-01-30T06:47:18.814Z,28.33
2019-01-30T06:49:44.923Z,30.67
2019-01-30T06:52:11.065Z,31.70
2019-01-30T06:54:37.310Z,27.87
2019-01-30T06:57:03.569Z,29.03
2019-01-30T06:59:29.709Z,29.83
2019-01-30T07:01:55.900Z,30.77
2019-01-30T07:04:22.233Z,29.00
2019-01-30T07:06:48.480Z,31.73
2019-01-30T07:09:14.643Z,34.10
2019-01-30T07:11:40.796Z,31.63
2019-01-30T07:14:06.995Z,31.37
2019-01-30T07:16:35.064Z,29.13
2019-01-30T07:19:01.174Z,47.40
2019-01-30T07:21:27.277Z,38.37
2019-01-30T07:23:53.435Z,38.03
2019-01-30T07:26:19.775Z,30.17
2019-01-30T07:28:46.011Z,30.53
2019-01-30T07:31:12.165Z,27.63
2019-01-30T07:33:38.327Z,28.67
2019-01-30T07:36:04.945Z,31.60
2019-01-30T07:38:31.133Z,28.33
2019-01-30T07:40:57.282Z,30.90
2019-01-30T07:43:23.451Z,31.97
2019-01-30T07:45:49.583Z,30.00
2019-01-30T07:48:15.857Z,31.53
2019-01-30T07:50:42.004Z,29.80
2019-01-30T07:53:08.141Z,29.50
2019-01-30T07:55:34.313Z,29.33
2019-01-30T07:58:00.443Z,29.83
2019-01-30T08:00:28.563Z,29.33
2019-01-30T08:02:54.738Z,34.30
2019-01-30T08:05:22.684Z,31.10
2019-01-30T08:07:49.549Z,32.03
2019-01-30T08:10:15.907Z,33.17
2019-01-30T08:12:42.155Z,27.03
2019-01-30T08:15:11.288Z,32.80
2019-01-30T08:17:37.628Z,33.47
2019-01-30T08:20:09.765Z,29.23
2019-01-30T08:22:35.872Z,35.43
2019-01-30T08:25:02.135Z,33.33
2019-01-30T08:27:29.022Z,32.23
2019-01-30T08:29:55.234Z,33.87
2019-01-30T08:32:22.371Z,28.33
2019-01-30T08:34:48.771Z,30.67
2019-01-30T08:37:14.875Z,27.07
2019-01-30T08:39:41.003Z,25.43
2019-01-30T08:42:07.304Z,24.00
2019-01-30T08:44:33.433Z,24.07
2019-01-30T08:46:59.593Z,24.90
2019-01-30T08:49:25.734Z,24.60
2019-01-30T08:51:51.993Z,24.30
2019-01-30T08:54:18.104Z,27.17
2019-01-30T08:56:53.050Z,22.13
2019-01-30T08:59:14.084Z,21.53
2019-01-30T09:01:40.237Z,24.47
2019-01-30T09:04:06.357Z,19.47
2019-01-30T09:06:32.510Z,17.83
2019-01-30T09:08:59.051Z,17.53
2019-01-30T09:11:25.278Z,17.00
2019-01-30T09:13:51.472Z,13.37
2019-01-30T09:16:17.614Z,14.07
2019-01-30T09:18:43.779Z,11.77
2019-01-30T09:21:09.918Z,10.13
2019-01-30T09:23:36.075Z,6.80
2019-01-30T09:26:02.183Z,7.50
2019-01-30T09:28:28.457Z,8.00
2019-01-30T09:30:54.757Z,6.53
2019-01-30T09:33:25.777Z,8.53
2019-01-30T09:35:49.333Z,5.87
2019-01-30T09:38:15.800Z,9.50
2019-01-30T09:40:42.081Z,8.30
2019-01-30T09:43:08.278Z,7.10
2019-01-30T09:45:34.418Z,11.07
2019-01-30T09:48:00.829Z,10.70
2019-01-30T09:50:26.972Z,12.40
2019-01-30T09:52:53.205Z,13.63
2019-01-30T09:55:19.425Z,11.57
2019-01-30T09:57:45.592Z,10.70
2019-01-30T10:00:18.067Z,11.37
2019-01-30T10:02:44.301Z,13.90
2019-01-30T10:05:12.129Z,9.40
2019-01-30T10:07:38.419Z,12.47
2019-01-30T10:10:11.146Z,10.60
2019-01-30T10:12:37.314Z,16.27
2019-01-30T10:15:07.036Z,13.03
2019-01-30T10:17:33.103Z,15.20
2019-01-30T10:19:59.219Z,14.20
2019-01-30T10:22:25.433Z,24.40
2019-01-30T10:24:51.675Z,20.07
2019-01-30T10:27:17.909Z,16.73
2019-01-30T10:29:44.078Z,19.30
2019-01-30T10:32:10.603Z,23.13
2019-01-30T10:34:36.923Z,20.33
2019-01-30T10:37:04.273Z,20.47
2019-01-30T10:39:30.601Z,22.23
2019-01-30T10:41:56.912Z,24.17
2019-01-30T10:44:25.694Z,20.67
2019-01-30T10:46:51.983Z,16.10
2019-01-30T10:49:18.224Z,20.53
2019-01-30T10:51:46.282Z,18.87
2019-01-30T10:54:12.557Z,18.50
2019-01-30T10:56:38.708Z,17.93
2019-01-30T10:59:04.874Z,15.77
2019-01-30T11:01:31.042Z,18.97
2019-01-30T11:03:58.623Z,18.50
2019-01-30T11:06:24.723Z,17.47
2019-01-30T11:08:50.891Z,17.00
2019-01-30T11:11:17.021Z,13.83
2019-01-30T11:13:43.154Z,12.43
2019-01-30T11:16:09.377Z,15.97
2019-01-30T11:18:35.522Z,12.10
2019-01-30T11:21:01.750Z,16.90
2019-01-30T11:23:27.930Z,10.53
2019-01-30T11:25:54.162Z,10.97
2019-01-30T11:28:20.312Z,11.20
2019-01-30T11:30:46.440Z,7.20
2019-01-30T11:33:12.706Z,11.67
2019-01-30T11:35:38.835Z,9.50
2019-01-30T11:38:05.293Z,9.40
2019-01-30T11:40:31.517Z,12.53
2019-01-30T11:42:58.037Z,12.73
2019-01-30T11:45:30.288Z,10.47
2019-01-30T11:47:56.454Z,11.83
2019-01-30T11:50:22.743Z,7.97
2019-01-30T11:52:48.910Z,13.70
2019-01-30T11:55:17.349Z,5.40
2019-01-30T11:57:43.720Z,6.30
2019-01-30T12:00:15.174Z,8.90
2019-01-30T12:02:47.668Z,6.90
2019-01-30T12:05:12.798Z,5.33
2019-01-30T12:07:39.038Z,6.67
2019-01-30T12:10:08.803Z,7.57
2019-01-30T12:12:36.423Z,7.67
2019-01-30T12:15:17.559Z,5.20
2019-01-30T12:17:43.734Z,7.07
2019-01-30T12:20:11.484Z,10.23
2019-01-30T12:22:37.663Z,11.07
2019-01-30T12:25:07.128Z,8.47
2019-01-30T12:27:33.381Z,5.63
2019-01-30T12:29:59.533Z,6.63
2019-01-30T12:32:25.711Z,8.00
2019-01-30T12:34:51.856Z,10.67
2019-01-30T12:37:18.077Z,9.43
2019-01-30T12:39:46.035Z,9.73
2019-01-30T12:42:12.280Z,6.83
2019-01-30T12:44:38.566Z,9.77
2019-01-30T12:47:04.881Z,4.77
2019-01-30T12:49:30.989Z,4.87
2019-01-30T12:51:57.299Z,5.90
2019-01-30T12:54:23.565Z,5.83
2019-01-30T12:56:49.675Z,6.47
2019-01-30T12:59:18.611Z,5.93
2019-01-30T13:01:44.829Z,11.00
2019-01-30T13:04:10.983Z,8.97
2019-01-30T13:06:37.229Z,8.20
2019-01-30T13:09:06.605Z,5.97
2019-01-30T13:11:32.806Z,8.57
2019-01-30T13:13:59.006Z,5.33
2019-01-30T13:16:25.280Z,6.60
2019-01-30T13:18:51.500Z,6.97
2019-01-30T13:21:17.664Z,7.37
2019-01-30T13:23:43.820Z,7.67
2019-01-30T13:26:10.165Z,5.00
2019-01-30T13:28:36.275Z,6.93
2019-01-30T13:31:02.500Z,9.93
2019-01-30T13:33:28.664Z,7.30
2019-01-30T13:35:54.799Z,9.83
2019-01-30T13:38:21.065Z,8.37
2019-01-30T13:40:47.463Z,10.60
2019-01-30T13:43:13.714Z,10.30
2019-01-30T13:45:39.946Z,5.60
2019-01-30T13:48:08.659Z,5.83
2019-01-30T13:50:34.788Z,5.00
2019-01-30T13:53:01.036Z,9.60
2019-01-30T13:55:27.169Z,4.00
2019-01-30T13:57:53.346Z,5.77
2019-01-30T14:00:31.227Z,7.00
2019-01-30T14:02:57.356Z,4.40
2019-01-30T14:05:23.655Z,5.77
2019-01-30T14:07:50.218Z,4.83
2019-01-30T14:10:16.383Z,3.63
2019-01-30T14:12:42.504Z,2.47
2019-01-30T14:15:12.356Z,3.33
2019-01-30T14:17:38.476Z,4.23
2019-01-30T14:20:08.200Z,4.33
2019-01-30T14:22:34.453Z,7.83
2019-01-30T14:25:00.644Z,6.63
2019-01-30T14:27:26.906Z,5.63
2019-01-30T14:29:58.227Z,5.90
2019-01-30T14:32:21.291Z,3.40
2019-01-30T14:34:47.396Z,3.90
2019-01-30T14:37:13.525Z,4.20
2019-01-30T14:39:39.767Z,7.07
2019-01-30T14:42:06.163Z,5.57
2019-01-30T14:44:32.323Z,5.83
2019-01-30T14:46:58.613Z,3.13
2019-01-30T14:49:24.850Z,3.93
2019-01-30T14:51:51.195Z,3.73
2019-01-30T14:54:17.317Z,4.17
2019-01-30T14:56:43.467Z,5.20
2019-01-30T14:59:09.613Z,4.47
2019-01-30T15:01:35.750Z,5.27
2019-01-30T15:04:01.953Z,5.20
2019-01-30T15:06:28.183Z,4.87
2019-01-30T15:08:54.313Z,3.83
2019-01-30T15:11:20.524Z,6.53
2019-01-30T15:13:46.715Z,4.10
2019-01-30T15:16:12.968Z,7.70
2019-01-30T15:18:39.164Z,3.30
2019-01-30T15:21:05.398Z,7.10
2019-01-30T15:23:31.590Z,5.00
2019-01-30T15:25:57.759Z,3.87
2019-01-30T15:28:23.904Z,5.47
2019-01-30T15:30:50.081Z,5.83
2019-01-30T15:33:16.307Z,8.13
2019-01-30T15:35:42.527Z,4.63
2019-01-30T15:38:09.675Z,6.00
2019-01-30T15:40:35.822Z,4.00
2019-01-30T15:43:02.139Z,3.83
2019-01-30T15:45:28.640Z,3.97
2019-01-30T15:47:54.938Z,5.37
2019-01-30T15:50:24.248Z,7.83
2019-01-30T15:52:50.706Z,6.80
2019-01-30T15:55:16.964Z,7.50
2019-01-30T15:57:46.496Z,3.47
2019-01-30T16:00:30.663Z,5.53
2019-01-30T16:02:56.842Z,6.03
2019-01-30T16:05:23.029Z,5.03
2019-01-30T16:07:49.141Z,7.00
2019-01-30T16:10:15.349Z,7.40
2019-01-30T16:12:43.371Z,4.33
2019-01-30T16:15:19.128Z,5.57
2019-01-30T16:17:45.365Z,3.53
2019-01-30T16:20:13.330Z,4.73
2019-01-30T16:22:39.544Z,7.33
2019-01-30T16:25:09.456Z,4.53
2019-01-30T16:27:35.886Z,6.50
2019-01-30T16:30:03.902Z,10.70
2019-01-30T16:32:30.112Z,11.03
2019-01-30T16:34:56.376Z,9.53
2019-01-30T16:37:22.710Z,6.10
2019-01-30T16:39:48.893Z,7.77
2019-01-30T16:42:15.051Z,6.80
2019-01-30T16:44:41.177Z,6.90
2019-01-30T16:47:07.493Z,4.23
2019-01-30T16:49:33.598Z,7.27
2019-01-30T16:51:59.735Z,7.67
2019-01-30T16:54:26.994Z,6.70
2019-01-30T16:56:53.112Z,8.00
2019-01-30T16:59:19.260Z,8.03
2019-01-30T17:01:45.500Z,8.50
2019-01-30T17:04:11.682Z,11.00
2019-01-30T17:06:37.927Z,10.33
2019-01-30T17:09:05.847Z,4.40
2019-01-30T17:11:32.104Z,7.63
2019-01-30T17:13:58.293Z,10.40
2019-01-30T17:16:24.405Z,11.57
2019-01-30T17:18:50.535Z,6.77
2019-01-30T17:21:16.673Z,12.17
2019-01-30T17:23:42.801Z,13.17
2019-01-30T17:26:09.067Z,13.83
2019-01-30T17:28:35.730Z,10.37
2019-01-30T17:31:03.089Z,16.03
2019-01-30T17:33:29.238Z,104.20
2019-01-30T17:35:55.399Z,131.10
2019-01-30T17:38:21.524Z,72.37
2019-01-30T17:40:47.646Z,15.83
2019-01-30T17:43:13.858Z,21.90
2019-01-30T17:45:40.124Z,13.13
2019-01-30T17:48:07.600Z,10.93
2019-01-30T17:50:33.867Z,15.73
2019-01-30T17:53:00.136Z,19.53
2019-01-30T17:55:26.678Z,19.10
2019-01-30T17:57:52.967Z,9.83
2019-01-30T18:00:46.780Z,19.10
2019-01-30T18:03:12.870Z,21.17
2019-01-30T18:05:39.086Z,16.40
2019-01-30T18:08:05.277Z,19.93
2019-01-30T18:10:31.387Z,13.77
2019-01-30T18:12:57.590Z,13.50
2019-01-30T18:15:23.777Z,12.80
2019-01-30T18:17:49.927Z,16.37
2019-01-30T18:20:20.201Z,26.60
2019-01-30T18:22:46.401Z,29.57
2019-01-30T18:25:19.416Z,30.43
2019-01-30T18:27:45.581Z,32.27
2019-01-30T18:30:15.452Z,28.40
2019-01-30T18:32:41.945Z,26.03
2019-01-30T18:35:08.740Z,30.93
2019-01-30T18:37:34.997Z,20.37
2019-01-30T18:40:01.154Z,18.53
2019-01-30T18:42:27.364Z,16.20
2019-01-30T18:44:53.504Z,23.40
2019-01-30T18:47:20.148Z,18.90
2019-01-30T18:49:46.364Z,15.00
2019-01-30T18:52:13.903Z,20.83
2019-01-30T18:54:40.180Z,14.83
2019-01-30T18:57:06.419Z,18.13
2019-01-30T18:59:32.538Z,15.37
2019-01-30T19:01:58.671Z,20.10
2019-01-30T19:04:24.898Z,15.93
2019-01-30T19:06:52.650Z,18.43
2019-01-30T19:09:19.080Z,18.90
2019-01-30T19:11:45.249Z,15.93
2019-01-30T19:14:11.354Z,26.00
2019-01-30T19:16:37.511Z,22.83
2019-01-30T19:19:03.631Z,27.53
2019-01-30T19:21:29.866Z,25.23
2019-01-30T19:23:55.978Z,29.27
2019-01-30T19:26:25.102Z,27.40
2019-01-30T19:28:51.222Z,16.90
2019-01-30T19:31:17.548Z,18.60
2019-01-30T19:33:45.538Z,25.50
2019-01-30T19:36:11.764Z,26.77
2019-01-30T19:38:38.896Z,28.20
2019-01-30T19:41:05.031Z,20.23
2019-01-30T19:43:31.201Z,19.23
2019-01-30T19:45:57.427Z,25.33
2019-01-30T19:48:23.591Z,27.27
2019-01-30T19:50:49.746Z,23.33
2019-01-30T19:53:15.904Z,27.33
2019-01-30T19:55:42.153Z,31.13
2019-01-30T19:58:08.508Z,31.47
2019-01-30T20:00:37.158Z,29.03
2019-01-30T20:03:07.097Z,28.30
2019-01-30T20:05:33.275Z,27.90
2019-01-30T20:07:59.557Z,28.27
2019-01-30T20:10:31.742Z,34.67
2019-01-30T20:12:58.038Z,36.03
2019-01-30T20:15:24.152Z,39.13
2019-01-30T20:17:53.126Z,31.17
2019-01-30T20:20:21.065Z,36.70
2019-01-30T20:22:47.436Z,35.50
2019-01-30T20:25:18.980Z,32.43
2019-01-30T20:27:45.182Z,32.30
2019-01-30T20:30:14.962Z,32.33
2019-01-30T20:32:41.146Z,32.77
2019-01-30T20:35:07.699Z,32.20
2019-01-30T20:37:33.919Z,29.60
2019-01-30T20:40:00.097Z,28.87
2019-01-30T20:42:26.288Z,26.57
2019-01-30T20:44:52.452Z,30.63
2019-01-30T20:47:18.586Z,28.83
2019-01-30T20:49:45.048Z,46.50
2019-01-30T20:52:11.162Z,56.93
2019-01-30T20:54:37.314Z,44.07
2019-01-30T20:57:03.506Z,33.13
2019-01-30T20:59:29.734Z,32.47
2019-01-30T21:01:55.911Z,31.60
2019-01-30T21:04:22.059Z,28.50
2019-01-30T21:06:48.705Z,27.47
2019-01-30T21:09:14.846Z,31.40
2019-01-30T21:11:41.237Z,29.40
2019-01-30T21:14:07.411Z,29.57
2019-01-30T21:16:33.731Z,27.70
2019-01-30T21:19:02.592Z,26.47
2019-01-30T21:21:28.711Z,26.30
2019-01-30T21:23:54.868Z,26.43
2019-01-30T21:26:20.994Z,26.20
2019-01-30T21:28:49.146Z,25.20
2019-01-30T21:31:15.302Z,23.67
2019-01-30T21:33:41.449Z,28.50
2019-01-30T21:36:07.698Z,29.10
2019-01-30T21:38:33.870Z,25.20
2019-01-30T21:41:00.038Z,27.17
2019-01-30T21:43:26.250Z,20.33
2019-01-30T21:45:52.391Z,24.37
2019-01-30T21:48:18.526Z,20.20
2019-01-30T21:50:44.658Z,21.97
2019-01-30T21:53:10.991Z,22.30
2019-01-30T21:55:39.092Z,19.93
2019-01-30T21:58:05.340Z,21.07
2019-01-30T22:00:31.558Z,19.33
2019-01-30T22:02:57.840Z,22.80
2019-01-30T22:05:24.634Z,23.40
2019-01-30T22:08:00.741Z,24.50
2019-01-30T22:10:24.489Z,19.50
2019-01-30T22:12:50.596Z,21.40
2019-01-30T22:15:16.823Z,25.40
2019-01-30T22:17:46.029Z,20.10
2019-01-30T22:20:20.064Z,19.00
2019-01-30T22:22:46.272Z,21.23
2019-01-30T22:25:20.245Z,21.03
2019-01-30T22:27:45.834Z,23.80
2019-01-30T22:30:21.122Z,19.73
2019-01-30T22:32:47.475Z,22.70
2019-01-30T22:35:13.663Z,25.27
2019-01-30T22:37:39.856Z,25.00
2019-01-30T22:40:09.290Z,20.50
2019-01-30T22:42:35.440Z,22.17
2019-01-30T22:45:01.555Z,20.33
2019-01-30T22:47:27.794Z,21.73
2019-01-30T22:49:53.893Z,20.40
2019-01-30T22:52:20.045Z,21.73
2019-01-30T22:54:46.192Z,21.87
2019-01-30T22:57:12.338Z,22.23
2019-01-30T22:59:38.589Z,23.53
2019-01-30T23:02:04.987Z,19.83
2019-01-30T23:04:40.590Z,22.37
2019-01-30T23:07:19.470Z,21.37
2019-01-30T23:09:58.320Z,22.33
2019-01-30T23:12:30.884Z,24.53
2019-01-30T23:15:18.052Z,18.83
2019-01-30T23:18:14.002Z,19.77
2019-01-30T23:20:50.005Z,19.67
2019-01-30T23:23:22.673Z,20.33
2019-01-30T23:25:52.530Z,23.77
2019-01-30T23:28:34.233Z,22.33
2019-01-30T23:31:10.997Z,22.80
2019-01-30T23:34:04.605Z,20.70
2019-01-30T23:36:52.532Z,21.87
2019-01-30T23:39:57.064Z,25.60
2019-01-30T23:42:53.818Z,21.73
2019-01-30T23:45:38.080Z,24.57
2019-01-30T23:48:20.084Z,21.00
2019-01-30T23:51:08.277Z,23.27
2019-01-30T23:53:56.319Z,20.90
2019-01-30T23:56:49.017Z,24.43
2019-01-30T23:59:33.569Z,23.03
